Time;durP1;ratioP1;P1;durP2;ratioP2;P2;SDS_P1;SDS_P2;PMS_P1;PMS_P2;Temp;Humidity;BMP_temperature;BMP_pressure;BME280_temperature;BME280_humidity;BME280_pressure;Samples;Min_cycle;Max_cycle;Signal;HPM_P1;HPM_P2
2023/09/03 00:04:09;;;;;;;3.47;2.40;;;;;;;21.17;57.47;100009.94;10374736;28;97460;-79
2023/09/03 00:09:15;;;;;;;3.88;2.20;;;;;;;21.16;57.61;100013.63;10374772;28;96700;-80
2023/09/03 00:14:19;;;;;;;3.22;1.90;;;;;;;21.17;57.64;100012.63;10373965;28;96821;-80
2023/09/03 00:19:23;;;;;;;3.95;1.60;;;;;;;21.20;57.42;100004.34;10373461;28;96649;-79
2023/09/03 00:24:27;;;;;;;3.97;1.97;;;;;;;21.18;57.43;99998.28;10372563;28;96945;-80
2023/09/03 00:29:32;;;;;;;3.15;1.95;;;;;;;21.14;58.08;100012.88;10372713;28;96919;-80
2023/09/03 00:34:35;;;;;;;1.48;1.25;;;;;;;21.18;57.66;99987.59;10373130;28;96714;-80
2023/09/03 00:39:42;;;;;;;1.35;1.10;;;;;;;21.24;57.44;99996.91;10373564;28;96980;-80
2023/09/03 00:44:46;;;;;;;1.92;1.10;;;;;;;21.16;57.89;99980.66;10372648;28;96835;-79
2023/09/03 00:49:49;;;;;;;1.38;0.90;;;;;;;21.21;57.62;99962.34;10372030;28;98014;-80
2023/09/03 00:54:55;;;;;;;1.13;0.77;;;;;;;21.20;57.46;99947.31;10414698;27;97503;-80
2023/09/03 00:59:59;;;;;;;1.02;0.68;;;;;;;21.02;58.30;99957.75;10414785;28;97821;-80
2023/09/03 01:05:03;;;;;;;1.00;0.60;;;;;;;20.94;58.69;99975.44;10413563;28;96606;-80
2023/09/03 01:10:08;;;;;;;1.58;0.80;;;;;;;20.97;58.32;99951.94;10414053;27;96630;-80
2023/09/03 01:15:18;;;;;;;1.42;0.80;;;;;;;20.97;58.12;99949.28;10412816;28;96810;-80
2023/09/03 01:20:27;;;;;;;0.75;0.60;;;;;;;20.99;57.90;99959.84;10403911;28;96751;-80
2023/09/03 01:25:45;;;;;;;1.33;0.63;;;;;;;20.95;58.09;99967.28;10413065;28;96605;-79
2023/09/03 01:30:52;;;;;;;1.23;0.77;;;;;;;20.99;57.45;99954.50;10433974;27;96708;-80
2023/09/03 01:35:57;;;;;;;1.83;0.82;;;;;;;20.97;57.14;99953.78;10454846;27;96638;-80
2023/09/03 01:41:01;;;;;;;1.00;0.50;;;;;;;21.07;56.39;99950.16;10454633;27;96521;-80
2023/09/03 01:46:09;;;;;;;1.27;0.60;;;;;;;21.20;56.03;99945.47;10427508;27;97646;-80
2023/09/03 01:51:21;;;;;;;1.05;0.70;;;;;;;21.22;55.50;99950.69;10413303;28;96685;-79
2023/09/03 01:56:27;;;;;;;1.52;0.63;;;;;;;21.23;55.66;99961.25;10412518;28;96675;-80
2023/09/03 02:01:33;;;;;;;1.08;0.65;;;;;;;21.26;55.24;99973.50;10412639;27;96715;-80
2023/09/03 02:06:37;;;;;;;2.85;0.65;;;;;;;21.32;55.05;99976.50;10410838;28;96849;-79
2023/09/03 02:11:40;;;;;;;1.67;0.60;;;;;;;21.36;54.68;99971.75;10412169;28;97723;-80
2023/09/03 02:16:45;;;;;;;1.03;0.53;;;;;;;21.35;54.54;99965.53;10412054;27;97699;-80
2023/09/03 02:21:48;;;;;;;0.50;0.50;;;;;;;21.35;55.04;99970.88;10419833;27;97873;-80
2023/09/03 02:26:52;;;;;;;1.13;0.80;;;;;;;21.35;54.87;99962.84;10418280;28;96728;-80
2023/09/03 02:31:56;;;;;;;1.08;0.77;;;;;;;21.39;54.73;99966.97;10418764;28;96780;-80
2023/09/03 02:37:00;;;;;;;0.88;0.70;;;;;;;21.40;54.74;99955.25;10418724;27;96724;-80
2023/09/03 02:42:04;;;;;;;1.98;0.80;;;;;;;21.37;55.05;99941.28;10418973;28;97677;-79
2023/09/03 02:47:09;;;;;;;1.67;0.60;;;;;;;21.23;55.13;99947.03;10417507;28;96586;-79
2023/09/03 02:52:12;;;;;;;1.10;0.65;;;;;;;21.22;55.28;99942.66;10427559;27;96734;-79
2023/09/03 02:57:16;;;;;;;1.25;0.70;;;;;;;21.23;55.27;99930.97;10458704;27;96730;-79
2023/09/03 03:02:20;;;;;;;1.50;0.77;;;;;;;21.24;55.16;99921.97;10459718;27;96629;-79
2023/09/03 03:07:25;;;;;;;2.47;0.93;;;;;;;21.16;55.50;99932.47;10459445;27;96773;-79
2023/09/03 03:12:28;;;;;;;1.20;0.70;;;;;;;21.05;55.88;99930.72;10458542;27;97711;-79
2023/09/03 03:17:33;;;;;;;1.30;0.85;;;;;;;21.02;55.92;99912.25;10458665;27;96630;-79
2023/09/03 03:22:36;;;;;;;1.02;0.75;;;;;;;21.04;55.96;99925.50;10432983;27;96678;-79
2023/09/03 03:27:40;;;;;;;1.85;0.80;;;;;;;20.98;56.23;99940.25;10416966;27;97388;-79
2023/09/03 03:32:44;;;;;;;1.10;0.80;;;;;;;20.98;56.24;99939.44;10417817;28;97739;-79
2023/09/03 03:37:48;;;;;;;1.67;0.80;;;;;;;20.93;56.44;99925.63;10416338;28;96556;-79
2023/09/03 03:42:51;;;;;;;1.88;0.80;;;;;;;20.91;56.48;99931.06;10417268;27;96932;-80
2023/09/03 03:47:56;;;;;;;1.70;0.90;;;;;;;20.91;56.55;99930.25;10406188;28;96617;-80
2023/09/03 03:52:59;;;;;;;1.13;0.60;;;;;;;20.93;56.78;99937.13;10415729;28;96699;-79
2023/09/03 03:58:02;;;;;;;1.23;0.65;;;;;;;20.95;56.69;99934.31;10415486;28;96640;-80
2023/09/03 04:03:07;;;;;;;1.37;0.70;;;;;;;20.97;56.86;99932.38;10450421;27;97858;-79
2023/09/03 04:08:11;;;;;;;1.45;0.60;;;;;;;20.93;56.79;99931.78;10457357;27;96694;-79
2023/09/03 04:13:14;;;;;;;1.00;0.70;;;;;;;20.96;56.71;99933.38;10457312;27;96862;-80
2023/09/03 04:18:19;;;;;;;0.90;0.65;;;;;;;21.03;56.46;99923.81;10455870;27;96680;-80
2023/09/03 04:23:23;;;;;;;1.42;0.90;;;;;;;21.01;56.40;99932.00;10438939;27;96509;-80
2023/09/03 04:28:26;;;;;;;1.20;0.80;;;;;;;21.09;56.43;99928.63;10414787;28;96691;-79
2023/09/03 04:33:31;;;;;;;0.57;0.47;;;;;;;21.11;56.56;99913.28;10448603;27;96946;-79
2023/09/03 04:38:35;;;;;;;1.17;0.85;;;;;;;21.10;56.89;99917.78;10413430;28;96729;-80
2023/09/03 04:43:38;;;;;;;1.15;0.73;;;;;;;21.08;56.61;99914.41;10413948;27;96633;-80
2023/09/03 04:48:43;;;;;;;1.45;0.70;;;;;;;21.06;56.65;99921.72;10413510;28;96807;-80
2023/09/03 04:53:47;;;;;;;1.60;0.80;;;;;;;21.11;56.80;99923.97;10414974;27;97537;-79
2023/09/03 04:58:51;;;;;;;2.33;0.80;;;;;;;21.13;56.61;99914.84;10413916;28;96882;-79
2023/09/03 05:03:55;;;;;;;0.90;0.77;;;;;;;21.10;57.02;99927.66;10414042;28;96746;-79
2023/09/03 05:08:58;;;;;;;1.60;0.85;;;;;;;21.06;57.34;99923.53;10414797;27;96775;-79
2023/09/03 05:14:02;;;;;;;1.90;0.80;;;;;;;21.03;57.59;99910.44;10414358;28;96536;-80
2023/09/03 05:19:07;;;;;;;1.98;0.70;;;;;;;21.02;57.65;99914.09;10413219;28;96856;-79
2023/09/03 05:24:11;;;;;;;1.17;0.80;;;;;;;21.02;57.66;99909.59;10413694;27;97593;-79
2023/09/03 05:29:15;;;;;;;1.73;0.90;;;;;;;20.98;58.01;99904.66;10412195;28;96687;-80
2023/09/03 05:34:19;;;;;;;1.45;0.98;;;;;;;20.98;57.98;99885.94;10413143;28;96765;-79
2023/09/03 05:39:25;;;;;;;1.10;0.60;;;;;;;20.93;58.38;99893.50;10412840;28;96641;-79
2023/09/03 05:44:28;;;;;;;2.97;0.80;;;;;;;20.90;58.55;99891.94;10412992;27;97584;-80
2023/09/03 05:49:33;;;;;;;1.13;0.60;;;;;;;20.90;58.48;99888.41;10411956;28;96882;-80
2023/09/03 05:54:36;;;;;;;1.45;0.68;;;;;;;20.92;58.42;99889.13;10418585;27;96860;-79
2023/09/03 05:59:39;;;;;;;1.00;0.80;;;;;;;20.95;58.48;99880.81;10420290;27;96910;-80
2023/09/03 06:04:44;;;;;;;1.30;0.70;;;;;;;21.00;58.44;99878.63;10420394;28;96677;-79
2023/09/03 06:09:47;;;;;;;0.70;0.50;;;;;;;20.97;58.47;99870.84;10419497;28;96667;-79
2023/09/03 06:14:51;;;;;;;1.33;0.60;;;;;;;20.84;59.23;99873.78;10418840;28;96677;-80
2023/09/03 06:19:55;;;;;;;1.45;0.82;;;;;;;20.92;58.86;99865.06;10458836;27;97547;-80
2023/09/03 06:24:59;;;;;;;0.85;0.70;;;;;;;20.96;58.79;99878.03;10428956;27;96740;-79
2023/09/03 06:30:03;;;;;;;1.02;0.80;;;;;;;20.92;59.02;99876.59;10418951;28;97255;-79
2023/09/03 06:35:08;;;;;;;1.50;0.80;;;;;;;20.96;59.09;99874.50;10419069;27;96730;-79
2023/09/03 06:40:14;;;;;;;0.85;0.63;;;;;;;20.99;59.08;99875.09;10418142;28;96557;-80
2023/09/03 06:45:18;;;;;;;1.52;0.50;;;;;;;21.08;58.66;99860.03;10418214;28;97391;-80
2023/09/03 06:50:23;;;;;;;0.90;0.70;;;;;;;21.13;58.71;99841.75;10417987;27;96873;-79
2023/09/03 06:55:26;;;;;;;1.27;0.80;;;;;;;21.25;58.21;99865.63;10418956;28;96882;-80
2023/09/03 07:00:30;;;;;;;1.35;0.60;;;;;;;21.73;57.32;99860.31;10417388;28;97313;-80
2023/09/03 07:05:35;;;;;;;;;;;;;;;21.81;56.55;99849.78;10417533;27;96986;-80
2023/09/03 07:10:38;;;;;;;1.23;0.80;;;;;;;21.73;56.83;99863.00;10455517;27;97689;-79
2023/09/03 07:15:42;;;;;;;1.40;0.70;;;;;;;21.74;56.97;99870.06;10459027;27;97083;-80
2023/09/03 07:20:47;;;;;;;0.57;0.52;;;;;;;21.70;57.29;99860.59;10459061;27;96632;-80
2023/09/03 07:25:50;;;;;;;1.20;0.60;;;;;;;21.52;57.39;99864.94;10432966;27;96590;-81
2023/09/03 07:30:54;;;;;;;0.73;0.50;;;;;;;21.46;57.58;99869.06;10430498;27;96492;-81
2023/09/03 07:35:58;;;;;;;2.40;0.60;;;;;;;21.45;57.64;99869.16;10458765;27;97955;-80
2023/09/03 07:41:02;;;;;;;0.85;0.70;;;;;;;21.52;57.47;99886.38;10449272;27;96660;-80
2023/09/03 07:46:06;;;;;;;1.77;0.60;;;;;;;21.60;57.09;99891.03;10416236;28;96903;-80
2023/09/03 07:51:13;;;;;;;0.80;0.60;;;;;;;21.66;57.01;99896.69;10416057;28;97794;-79
2023/09/03 07:56:17;;;;;;;0.65;0.50;;;;;;;21.74;56.84;99879.94;10415597;28;96868;-80
2023/09/03 08:01:21;;;;;;;0.80;0.70;;;;;;;21.86;56.69;99881.47;10415294;27;96708;-79
2023/09/03 08:06:25;;;;;;;1.80;0.60;;;;;;;21.93;56.48;99888.81;10415702;28;97361;-79
2023/09/03 08:11:29;;;;;;;0.93;0.70;;;;;;;21.92;56.54;99878.22;10415458;28;96652;-80
2023/09/03 08:16:36;;;;;;;0.50;0.45;;;;;;;21.89;56.47;99879.38;10424106;22;96849;-81
2023/09/03 08:21:43;;;;;;;0.80;0.68;;;;;;;21.87;56.39;99872.44;10414401;28;96952;-80
2023/09/03 08:26:48;;;;;;;1.15;0.63;;;;;;;21.86;55.99;99863.59;10414777;28;97605;-80
2023/09/03 08:31:52;;;;;;;1.52;0.70;;;;;;;21.97;56.18;99870.63;10415261;27;97561;-80
2023/09/03 08:36:57;;;;;;;0.90;0.70;;;;;;;21.99;56.00;99855.25;10415623;28;96725;-80
2023/09/03 08:42:01;;;;;;;0.90;0.60;;;;;;;21.99;56.06;99868.66;10414978;28;97105;-80
2023/09/03 08:47:09;;;;;;;0.47;0.47;;;;;;;22.08;55.95;99863.31;10414488;28;97607;-80
2023/09/03 08:52:16;;;;;;;0.82;0.60;;;;;;;22.16;55.93;99866.13;10414056;27;97594;-80
2023/09/03 08:57:20;;;;;;;1.05;0.65;;;;;;;22.25;55.80;99869.75;10414112;28;96696;-80
2023/09/03 09:02:24;;;;;;;0.93;0.52;;;;;;;22.26;55.49;99888.38;10454475;27;96772;-80
2023/09/03 09:07:29;;;;;;;2.42;0.68;;;;;;;22.34;55.13;99896.56;10456024;27;97650;-80
2023/09/03 09:12:37;;;;;;;0.77;0.65;;;;;;;22.23;55.31;99909.28;10455835;27;96603;-80
2023/09/03 09:17:41;;;;;;;0.93;0.60;;;;;;;22.33;55.39;99905.59;10454464;27;96906;-81
2023/09/03 09:22:46;;;;;;;;;;;;;;;22.25;55.61;99912.66;10456269;27;97256;-80
2023/09/03 09:27:50;;;;;;;0.90;0.63;;;;;;;22.31;55.60;99928.19;10455693;27;97612;-80
2023/09/03 09:33:04;;;;;;;1.08;0.70;;;;;;;22.25;55.96;99913.50;10455183;27;96988;-81
2023/09/03 09:38:09;;;;;;;0.85;0.63;;;;;;;22.27;56.17;99914.22;10454956;27;96826;-80
2023/09/03 09:43:13;;;;;;;0.77;0.60;;;;;;;22.17;56.63;99948.22;10454570;27;97669;-80
2023/09/03 09:48:16;;;;;;;0.57;0.50;;;;;;;22.10;57.53;99947.09;10454501;27;96637;-80
2023/09/03 09:53:24;;;;;;;0.52;0.43;;;;;;;21.86;59.22;99953.81;10454539;27;96681;-80
2023/09/03 09:58:36;;;;;;;1.25;0.65;;;;;;;21.87;59.52;99960.84;10454246;27;96823;-80
2023/09/03 10:03:44;;;;;;;0.57;0.45;;;;;;;21.95;59.42;99940.41;10454412;27;96953;-80
2023/09/03 10:08:51;;;;;;;0.60;0.50;;;;;;;22.10;58.97;99939.06;10454250;27;96811;-80
2023/09/03 10:13:56;;;;;;;0.95;0.68;;;;;;;22.13;58.97;99945.97;10453808;27;96811;-81
2023/09/03 10:19:03;;;;;;;1.80;0.95;;;;;;;22.06;59.98;99955.53;10451522;27;97138;-81
2023/09/03 10:24:09;;;;;;;1.00;0.60;;;;;;;22.15;59.63;99960.06;10453459;27;96689;-80
2023/09/03 10:29:15;;;;;;;1.50;0.73;;;;;;;22.35;59.83;99941.16;10453860;27;97519;-80
2023/09/03 10:34:19;;;;;;;0.70;0.50;;;;;;;22.51;59.83;99953.97;10486580;27;96711;-80
2023/09/03 10:39:24;;;;;;;0.77;0.50;;;;;;;22.35;60.35;99940.31;10498147;27;96798;-80
2023/09/03 10:44:32;;;;;;;0.95;0.47;;;;;;;22.30;60.63;99935.38;10502702;27;96655;-80
2023/09/03 10:49:42;;;;;;;0.43;0.30;;;;;;;22.20;61.38;99931.00;10501377;27;96739;-80
2023/09/03 10:55:10;;;;;;;0.60;0.57;;;;;;;22.06;61.57;99924.25;10502534;27;97516;-81
2023/09/03 11:00:20;;;;;;;0.98;0.65;;;;;;;22.05;61.95;99927.91;10501893;27;96567;-80
2023/09/03 11:05:26;;;;;;;1.20;0.63;;;;;;;22.05;61.87;99911.00;10501344;27;96631;-80
2023/09/03 11:10:43;;;;;;;1.50;0.80;;;;;;;22.09;61.39;99899.84;10502738;27;97104;-80
2023/09/03 11:15:49;;;;;;;0.57;0.50;;;;;;;22.21;61.24;99905.91;10501433;27;96799;-81
2023/09/03 11:20:53;;;;;;;0.55;0.50;;;;;;;22.43;61.19;99894.88;10462502;27;96673;-80
2023/09/03 11:25:59;;;;;;;1.35;0.90;;;;;;;22.41;60.92;99892.34;10499183;27;96643;-80
2023/09/03 11:31:03;;;;;;;0.73;0.57;;;;;;;22.21;61.52;99889.81;10500773;27;96765;-81
2023/09/03 11:36:07;;;;;;;1.65;0.80;;;;;;;22.32;61.55;99879.78;10500944;27;96625;-80
2023/09/03 11:41:12;;;;;;;1.08;0.63;;;;;;;22.63;60.81;99881.25;10499855;27;97749;-80
2023/09/03 11:46:17;;;;;;;1.80;1.15;;;;;;;22.61;60.60;99867.13;10500698;27;96874;-80
2023/09/03 11:51:24;;;;;;;1.55;1.08;;;;;;;22.95;60.09;99855.88;10500352;27;96980;-80
2023/09/03 11:56:33;;;;;;;1.40;1.00;;;;;;;23.31;58.79;99837.03;10499507;27;98049;-80
2023/09/03 12:01:36;;;;;;;1.63;1.02;;;;;;;23.43;58.79;99835.81;10501250;27;96724;-80
2023/09/03 12:06:39;;;;;;;1.27;0.70;;;;;;;23.56;58.54;99832.81;10499787;27;96866;-80
2023/09/03 12:11:44;;;;;;;1.43;0.90;;;;;;;23.67;58.22;99824.50;10500114;27;97653;-80
2023/09/03 12:16:48;;;;;;;1.40;1.00;;;;;;;23.78;57.57;99826.09;10492469;27;96879;-81
2023/09/03 12:21:54;;;;;;;2.60;0.90;;;;;;;24.24;56.38;99796.22;10457252;27;96621;-80
2023/09/03 12:27:03;;;;;;;1.38;0.82;;;;;;;24.54;55.36;99768.88;10457052;27;96543;-80
2023/09/03 12:32:08;;;;;;;1.33;1.00;;;;;;;24.58;55.45;99763.00;10457355;27;96776;-80
2023/09/03 12:37:12;;;;;;;1.17;0.90;;;;;;;25.80;53.01;99762.31;10456793;27;96689;-82
2023/09/03 12:42:18;;;;;;;1.23;0.73;;;;;;;26.32;51.17;99769.00;10456846;27;96695;-81
2023/09/03 12:47:21;;;;;;;0.73;0.73;;;;;;;26.65;50.05;99762.50;10456727;27;96767;-81
2023/09/03 12:52:25;;;;;;;1.73;1.05;;;;;;;27.09;50.00;99764.69;10457049;27;96637;-80
2023/09/03 12:57:30;;;;;;;2.47;1.00;;;;;;;26.93;49.72;99769.16;10456148;27;97324;-81
2023/09/03 13:02:33;;;;;;;1.15;0.95;;;;;;;26.56;49.97;99758.16;10455114;27;97209;-81
2023/09/03 13:07:37;;;;;;;1.23;1.00;;;;;;;26.30;50.57;99727.84;10454853;27;96828;-81
2023/09/03 13:12:42;;;;;;;1.27;0.98;;;;;;;25.97;51.54;99720.03;10455741;27;96696;-81
2023/09/03 13:17:48;;;;;;;0.93;0.80;;;;;;;26.05;51.26;99691.19;10452689;27;96965;-81
2023/09/03 13:22:51;;;;;;;1.13;1.00;;;;;;;26.20;50.84;99696.69;10479489;27;96742;-81
2023/09/03 13:27:56;;;;;;;1.30;1.00;;;;;;;26.60;50.11;99692.00;10496736;27;96700;-81
2023/09/03 13:32:59;;;;;;;1.42;1.10;;;;;;;26.80;50.14;99695.94;10471608;27;97478;-81
2023/09/03 13:38:03;;;;;;;1.38;1.10;;;;;;;26.79;50.03;99701.53;10462605;27;96770;-81
2023/09/03 13:43:08;;;;;;;2.55;1.10;;;;;;;26.57;49.94;99672.63;10497766;27;96609;-80
2023/09/03 13:48:11;;;;;;;1.70;0.85;;;;;;;26.16;50.91;99676.50;10496671;27;96683;-81
2023/09/03 13:53:15;;;;;;;1.35;0.93;;;;;;;25.79;52.06;99669.84;10496839;27;96635;-80
2023/09/03 13:58:19;;;;;;;1.67;1.25;;;;;;;25.81;52.03;99640.00;10494446;27;96570;-81
2023/09/03 14:03:23;;;;;;;2.28;1.05;;;;;;;25.64;52.62;99641.84;10496376;27;96673;-81
2023/09/03 14:08:28;;;;;;;1.30;0.98;;;;;;;25.65;52.25;99640.00;10497187;27;96989;-81
2023/09/03 14:13:33;;;;;;;1.38;0.90;;;;;;;25.52;52.76;99648.59;10496715;27;96746;-81
2023/09/03 14:18:36;;;;;;;1.52;0.98;;;;;;;25.50;53.16;99685.66;10483326;27;96628;-81
2023/09/03 14:23:39;;;;;;;1.07;0.87;;;;;;;25.05;57.00;99693.38;10461044;27;97751;-80
2023/09/03 14:28:44;;;;;;;2.03;1.20;;;;;;;24.56;60.14;99700.47;10461644;27;97203;-80
2023/09/03 14:33:48;;;;;;;1.40;1.20;;;;;;;24.46;61.49;99688.97;10461854;27;97355;-80
2023/09/03 14:38:52;;;;;;;2.28;1.63;;;;;;;24.38;62.34;99688.94;10460496;27;97920;-82
2023/09/03 14:43:59;;;;;;;;;;;;;;;24.53;63.66;99689.19;10461241;27;96762;-82
2023/09/03 14:49:03;;;;;;;1.73;1.23;;;;;;;24.69;61.72;99673.06;10459149;27;96815;-80
2023/09/03 14:54:06;;;;;;;2.50;1.23;;;;;;;24.60;63.68;99674.88;10460158;27;96808;-81
2023/09/03 14:59:11;;;;;;;1.17;1.00;;;;;;;24.81;63.69;99677.97;10459603;27;96956;-81
2023/09/03 15:04:16;;;;;;;3.50;1.42;;;;;;;25.10;64.37;99665.94;10459481;27;96651;-81
2023/09/03 15:09:20;;;;;;;2.42;1.55;;;;;;;25.81;62.28;99662.41;10460154;27;97809;-81
2023/09/03 15:14:24;;;;;;;1.58;1.10;;;;;;;26.12;61.97;99613.09;10459207;27;96814;-81
2023/09/03 15:19:28;;;;;;;2.13;1.20;;;;;;;25.70;63.84;99594.53;10456776;27;96859;-81
2023/09/03 15:24:32;;;;;;;1.88;1.08;;;;;;;25.43;65.19;99605.69;10459315;27;97833;-80
2023/09/03 15:29:37;;;;;;;1.77;1.25;;;;;;;25.68;64.63;99610.84;10458882;27;97270;-81
2023/09/03 15:34:41;;;;;;;1.73;1.30;;;;;;;25.94;63.68;99594.47;10458635;27;96815;-81
2023/09/03 15:39:45;;;;;;;1.92;1.17;;;;;;;25.98;64.02;99624.63;10457992;27;96635;-81
2023/09/03 15:44:50;;;;;;;1.50;1.10;;;;;;;26.12;63.30;99613.09;10458452;27;97711;-81
2023/09/03 15:49:53;;;;;;;1.92;1.25;;;;;;;25.71;64.51;99640.19;10458037;27;96966;-81
2023/09/03 15:54:57;;;;;;;2.03;1.30;;;;;;;25.55;64.72;99640.16;10458743;27;96706;-81
2023/09/03 16:00:02;;;;;;;2.47;1.70;;;;;;;25.28;64.89;99653.16;10458020;27;97806;-81
2023/09/03 16:05:06;;;;;;;1.52;1.10;;;;;;;25.24;64.76;99636.47;10457942;27;96581;-81
2023/09/03 16:10:09;;;;;;;;;;;;;;;24.88;65.52;99632.41;10458116;27;96802;-80
2023/09/03 16:15:16;;;;;;;1.77;1.13;;;;;;;24.71;65.96;99622.63;10458681;27;97476;-81
2023/09/03 16:20:22;;;;;;;2.00;1.15;;;;;;;24.52;65.73;99613.00;10456535;27;97006;-80
2023/09/03 16:25:25;;;;;;;4.68;1.30;;;;;;;24.41;64.03;99607.09;10456335;27;96892;-80
2023/09/03 16:30:29;;;;;;;1.43;0.97;;;;;;;24.16;63.04;99643.78;10425580;27;97671;-80
2023/09/03 16:35:35;;;;;;;1.85;0.90;;;;;;;24.03;63.16;99647.91;10412640;28;97837;-80
2023/09/03 16:40:38;;;;;;;1.55;1.00;;;;;;;23.94;63.20;99613.94;10415115;28;96650;-81
2023/09/03 16:45:44;;;;;;;1.27;0.85;;;;;;;23.89;63.38;99613.56;10408187;28;96778;-81
2023/09/03 16:50:47;;;;;;;1.23;0.85;;;;;;;23.78;63.46;99633.50;10414133;28;96608;-81
2023/09/03 16:55:51;;;;;;;1.50;1.00;;;;;;;23.71;63.25;99629.75;10414075;28;96821;-80
2023/09/03 17:00:57;;;;;;;;;;;;;;;23.67;63.21;99636.44;10414454;28;97539;-81
2023/09/03 17:06:00;;;;;;;1.83;1.00;;;;;;;23.67;63.01;99637.28;10414295;28;98330;-80
2023/09/03 17:11:04;;;;;;;1.08;0.93;;;;;;;23.60;63.23;99630.84;10413426;28;96730;-82
2023/09/03 17:16:14;;;;;;;1.10;0.87;;;;;;;23.61;63.31;99620.97;10412877;28;97314;-80
2023/09/03 17:21:17;;;;;;;2.10;0.95;;;;;;;23.62;63.11;99596.63;10452296;27;96747;-81
2023/09/03 17:26:21;;;;;;;1.05;0.77;;;;;;;23.61;62.75;99616.41;10455161;27;96744;-80
2023/09/03 17:31:30;;;;;;;1.52;0.95;;;;;;;23.53;63.56;99623.53;10454698;27;96808;-80
2023/09/03 17:36:34;;;;;;;1.52;0.90;;;;;;;23.50;63.39;99613.97;10454528;27;98009;-80
2023/09/03 17:41:37;;;;;;;;;;;;;;;23.51;63.48;99623.72;10455571;27;96630;-80
2023/09/03 17:46:43;;;;;;;1.50;0.90;;;;;;;23.49;63.34;99638.31;10454711;27;97152;-80
2023/09/03 17:51:48;;;;;;;1.08;0.90;;;;;;;23.55;63.41;99643.06;10462201;27;97367;-81
2023/09/03 17:56:51;;;;;;;1.58;0.98;;;;;;;23.43;63.70;99637.09;10462453;27;97164;-81
2023/09/03 18:01:56;;;;;;;1.05;0.75;;;;;;;23.28;64.29;99632.44;10461598;27;97486;-81
2023/09/03 18:06:59;;;;;;;1.38;0.93;;;;;;;23.16;64.45;99617.56;10461201;27;96791;-80
2023/09/03 18:12:02;;;;;;;1.20;0.75;;;;;;;23.15;64.41;99640.03;10460279;27;96683;-80
2023/09/03 18:17:07;;;;;;;1.23;0.90;;;;;;;23.10;64.45;99645.88;10457709;27;96894;-80
2023/09/03 18:22:10;;;;;;;1.27;0.77;;;;;;;23.07;63.71;99637.28;10461109;27;96624;-81
2023/09/03 18:27:14;;;;;;;2.47;0.80;;;;;;;22.95;63.28;99607.16;10449863;27;96765;-80
2023/09/03 18:32:18;;;;;;;1.60;0.80;;;;;;;22.85;63.06;99675.31;10418813;28;96636;-80
2023/09/03 18:37:22;;;;;;;0.80;0.70;;;;;;;22.72;62.95;99656.88;10418582;28;96706;-80
2023/09/03 18:42:26;;;;;;;1.05;0.70;;;;;;;22.66;63.58;99662.00;10418123;28;96992;-80
2023/09/03 18:47:31;;;;;;;1.10;0.80;;;;;;;22.56;63.78;99629.88;10419644;27;96825;-80
2023/09/03 18:52:35;;;;;;;1.42;0.77;;;;;;;22.52;63.44;99618.59;10418267;28;97302;-80
2023/09/03 18:57:38;;;;;;;2.23;0.87;;;;;;;22.51;63.39;99659.84;10418189;28;97003;-81
2023/09/03 19:02:43;;;;;;;1.60;0.90;;;;;;;22.52;63.60;99693.69;10415842;27;96702;-80
2023/09/03 19:07:46;;;;;;;1.90;0.95;;;;;;;22.45;64.09;99664.97;10417403;28;96576;-80
2023/09/03 19:12:53;;;;;;;2.35;0.80;;;;;;;22.36;63.96;99650.63;10417587;28;97524;-80
2023/09/03 19:17:57;;;;;;;1.25;0.50;;;;;;;22.27;64.49;99686.34;10417146;27;96962;-80
2023/09/03 19:23:01;;;;;;;1.02;0.70;;;;;;;22.21;64.51;99641.38;10416713;28;96664;-81
2023/09/03 19:28:08;;;;;;;1.60;0.70;;;;;;;22.26;64.34;99671.25;10416866;28;96677;-80
2023/09/03 19:33:17;;;;;;;1.63;0.70;;;;;;;22.20;64.44;99653.09;10415235;28;96791;-81
2023/09/03 19:38:21;;;;;;;2.38;0.75;;;;;;;22.23;64.40;99701.03;10453050;27;97345;-80
2023/09/03 19:43:25;;;;;;;1.33;0.85;;;;;;;22.24;64.31;99691.16;10458382;27;97000;-80
2023/09/03 19:48:33;;;;;;;0.83;0.53;;;;;;;22.13;65.00;99662.72;10458122;27;97682;-81
2023/09/03 19:53:37;;;;;;;1.45;0.85;;;;;;;22.07;65.17;99644.53;10456641;27;97459;-81
2023/09/03 19:58:40;;;;;;;2.03;0.90;;;;;;;22.02;65.27;99664.75;10457849;27;97559;-80
2023/09/03 20:03:46;;;;;;;1.00;0.63;;;;;;;21.99;65.38;99692.66;10457642;27;96711;-81
2023/09/03 20:08:49;;;;;;;2.20;0.70;;;;;;;21.95;65.69;99653.72;10456537;27;96626;-81
2023/09/03 20:13:54;;;;;;;0.88;0.60;;;;;;;21.86;66.26;99685.91;10457583;27;97779;-81
2023/09/03 20:18:59;;;;;;;2.58;0.88;;;;;;;21.87;65.94;99704.53;10454388;27;96730;-81
2023/09/03 20:24:04;;;;;;;1.23;0.73;;;;;;;21.88;66.06;99698.19;10456904;27;96879;-79
2023/09/03 20:29:08;;;;;;;2.17;0.90;;;;;;;21.85;66.56;99689.59;10451595;27;96707;-81
2023/09/03 20:34:13;;;;;;;1.17;0.75;;;;;;;21.84;66.72;99715.53;10456844;27;96848;-81
2023/09/03 20:39:17;;;;;;;1.83;0.80;;;;;;;21.80;66.84;99716.81;10456685;27;97069;-81
2023/09/03 20:44:21;;;;;;;1.60;0.80;;;;;;;21.81;66.86;99729.22;10455912;27;97669;-79
2023/09/03 20:49:27;;;;;;;0.80;0.65;;;;;;;21.77;66.95;99727.81;10485324;22;98369;-81
2023/09/03 20:54:33;;;;;;;2.30;0.60;;;;;;;21.75;66.68;99740.50;10498548;27;96622;-80
2023/09/03 20:59:37;;;;;;;1.73;0.75;;;;;;;21.69;67.39;99745.59;10498727;27;96658;-81
2023/09/03 21:04:42;;;;;;;1.33;0.93;;;;;;;21.61;68.23;99743.63;10498428;27;98365;-81
2023/09/03 21:09:47;;;;;;;1.10;0.80;;;;;;;21.59;67.81;99677.81;10498129;27;96651;-80
2023/09/03 21:14:50;;;;;;;1.50;0.80;;;;;;;21.58;67.81;99697.53;10497442;27;96728;-81
2023/09/03 21:19:55;;;;;;;1.85;1.15;;;;;;;21.59;68.18;99691.22;10498238;27;96806;-81
2023/09/03 21:24:58;;;;;;;2.72;0.90;;;;;;;21.53;68.15;99692.63;10496886;27;96601;-80
2023/09/03 21:30:02;;;;;;;1.30;0.90;;;;;;;21.49;68.57;99724.19;10497399;27;96558;-80
2023/09/03 21:35:07;;;;;;;1.90;0.80;;;;;;;21.51;68.51;99729.41;10513486;27;97563;-81
2023/09/03 21:40:25;;;;;;;2.17;0.90;;;;;;;21.54;68.33;99731.78;10539516;27;96633;-81
2023/09/03 21:45:29;;;;;;;1.08;0.77;;;;;;;21.56;68.21;99715.56;10539567;27;97583;-80
2023/09/03 21:50:33;;;;;;;1.87;0.73;;;;;;;21.53;68.27;99714.03;10503416;27;96734;-80
2023/09/03 21:55:37;;;;;;;1.23;0.80;;;;;;;21.58;68.03;99722.50;10496836;27;97225;-80
2023/09/03 22:00:40;;;;;;;1.67;0.60;;;;;;;21.65;67.13;99722.75;10496759;27;98062;-81
2023/09/03 22:05:46;;;;;;;1.35;0.73;;;;;;;21.70;66.56;99731.19;10496558;27;96685;-80
2023/09/03 22:10:49;;;;;;;0.82;0.60;;;;;;;21.73;66.65;99738.97;10496855;27;96609;-80
2023/09/03 22:15:53;;;;;;;0.85;0.75;;;;;;;21.74;66.30;99729.94;10495863;27;96906;-81
2023/09/03 22:20:57;;;;;;;1.07;0.50;;;;;;;21.70;66.25;99723.16;10495627;27;97032;-81
2023/09/03 22:26:01;;;;;;;1.08;0.68;;;;;;;21.73;65.97;99704.97;10495512;27;96720;-80
2023/09/03 22:31:05;;;;;;;1.40;0.80;;;;;;;21.74;65.73;99705.81;10495695;27;96756;-80
2023/09/03 22:36:10;;;;;;;2.10;0.70;;;;;;;21.74;65.48;99708.50;10460023;27;97552;-81
2023/09/03 22:41:13;;;;;;;1.70;0.70;;;;;;;21.69;65.31;99714.31;10463449;27;97794;-81
2023/09/03 22:46:16;;;;;;;2.08;0.68;;;;;;;21.72;65.20;99716.69;10501774;27;96627;-80
2023/09/03 22:51:21;;;;;;;2.15;0.80;;;;;;;21.69;65.71;99722.34;10460353;27;97275;-81
2023/09/03 22:56:25;;;;;;;1.73;0.70;;;;;;;21.68;65.67;99728.66;10459849;27;96722;-81
2023/09/03 23:01:29;;;;;;;1.15;0.80;;;;;;;21.63;65.88;99736.28;10491621;27;96812;-80
2023/09/03 23:06:34;;;;;;;1.30;0.60;;;;;;;21.65;65.87;99747.72;10502015;27;96671;-80
2023/09/03 23:11:37;;;;;;;1.25;0.73;;;;;;;21.61;65.89;99743.63;10501894;27;96638;-80
2023/09/03 23:16:40;;;;;;;0.93;0.60;;;;;;;21.63;65.75;99744.31;10500981;27;96608;-80
2023/09/03 23:21:46;;;;;;;0.82;0.65;;;;;;;21.59;66.10;99758.16;10501269;27;96539;-80
2023/09/03 23:26:50;;;;;;;0.70;0.70;;;;;;;21.57;65.98;99760.97;10501112;27;96868;-81
2023/09/03 23:31:53;;;;;;;1.02;0.70;;;;;;;21.56;66.14;99759.25;10501065;27;97104;-81
2023/09/03 23:36:58;;;;;;;1.83;0.60;;;;;;;21.58;66.09;99765.34;10542374;27;97411;-81
2023/09/03 23:42:01;;;;;;;1.15;0.65;;;;;;;21.60;65.97;99770.53;10543560;27;97632;-80